Humidity-temperature Sensor

Selected Measurement Type: Air Temperature

 
Air Temperature [°C]     6 entries per hour
Showing data from 6/25/2022 (00:00:00 Z) to 6/22/2022 (00:01:00 Z)
Previous Next [ Day | 3-Days | 7-Days ]
First Last
Prev [ Day | 3-Days | 7-Days ] Next
First Last

Start Time:     :
End Time:     :     
Time (in GMT) :00 :50 :40 :30 :20 :10
Previous Next [ Day | 3-Days | 7-Days ]
First Last
Prev [ Day | 3-Days | 7-Days ] Next
First Last


123 => good data
MM => data is determined as missing
-- => data not received/configured
Back to Top Back to Top
6/25/2022 00:00 to 23:10 25.79 25.74 26.04 25.73 26.03 25.98
6/24/2022 23:00 to 22:10 25.88 26.04 25.89 25.88 25.90 26.12
6/24/2022 22:00 to 21:10 25.97 26.00 25.87 26.07 26.06 26.14
6/24/2022 21:00 to 20:10 25.93 26.04 26.28 25.98 25.87 26.08
6/24/2022 20:00 to 19:10 25.96 25.81 25.99 25.85 25.93 26.00
6/24/2022 19:00 to 18:10 25.82 25.87 25.87 25.87 25.86 25.68
6/24/2022 18:00 to 17:10 25.71 25.76 25.82 25.65 25.58 25.62
6/24/2022 17:00 to 16:10 25.75 25.58 25.63 25.67 25.53 25.28
6/24/2022 16:00 to 15:10 25.25 25.27 25.00 24.89 24.99 24.93
6/24/2022 15:00 to 14:10 25.05 25.07 25.00 25.04 24.80 24.49
6/24/2022 14:00 to 13:10 24.93 24.71 25.18 24.94 24.92 24.79
6/24/2022 13:00 to 12:10 25.07 25.03 24.99 25.08 25.18 25.14
6/24/2022 12:00 to 11:10 25.01 25.01 24.85 24.62 24.55 24.81
6/24/2022 11:00 to 10:10 24.96 25.09 24.86 24.77 24.73 24.69
6/24/2022 10:00 to 9:10 24.80 24.67 24.72 24.45 24.50 24.31
6/24/2022 09:00 to 8:10 24.44 24.50 24.70 24.76 24.46 24.55
6/24/2022 08:00 to 7:10 24.58 24.67 24.80 24.72 24.71 24.97
6/24/2022 07:00 to 6:10 24.76 24.72 24.88 24.75 24.81 24.95
6/24/2022 06:00 to 5:10 25.08 24.98 24.97 25.16 25.33 25.57
6/24/2022 05:00 to 4:10 25.65 25.80 25.90 25.85 25.80 25.95
6/24/2022 04:00 to 3:10 26.00 26.19 26.08 26.00 25.99 26.01
6/24/2022 03:00 to 2:10 25.85 25.96 26.01 26.00 25.84 25.85
6/24/2022 02:00 to 1:10 25.94 25.92 26.02 25.93 26.06 26.04
6/24/2022 01:00 to 0:10 26.09 26.08 26.30 26.36 26.06 26.07
6/24/2022 00:00 to 23:10 25.96 25.90 25.77 25.85 26.02 25.96
6/23/2022 23:00 to 22:10 26.19 26.10 26.16 26.05 25.95 25.80
6/23/2022 22:00 to 21:10 26.01 26.26 26.24 26.06 26.09 25.87
6/23/2022 21:00 to 20:10 25.90 25.95 25.91 25.83 25.79 25.80
6/23/2022 20:00 to 19:10 25.84 26.11 26.24 25.72 25.68 25.99
6/23/2022 19:00 to 18:10 25.84 25.96 25.97 25.92 25.86 25.81
6/23/2022 18:00 to 17:10 25.66 25.78 25.68 25.67 25.71 25.62
6/23/2022 17:00 to 16:10 25.54 25.77 25.76 25.74 25.76 25.63
6/23/2022 16:00 to 15:10 25.63 25.45 25.40 25.45 25.44 25.44
6/23/2022 15:00 to 14:10 25.42 25.28 25.25 25.14 25.14 25.05
6/23/2022 14:00 to 13:10 25.13 25.07 25.09 25.03 25.13 25.14
6/23/2022 13:00 to 12:10 25.00 25.02 25.02 24.83 24.85 24.81
6/23/2022 12:00 to 11:10 24.72 24.94 24.55 24.66 24.76 24.67
6/23/2022 11:00 to 10:10 24.98 25.02 25.17 25.09 24.92 24.77
6/23/2022 10:00 to 9:10 24.80 24.64 24.73 24.71 24.56 24.64
6/23/2022 09:00 to 8:10 24.57 24.61 24.48 24.39 24.34 24.42
6/23/2022 08:00 to 7:10 24.38 24.38 24.33 24.26 24.27 24.12
6/23/2022 07:00 to 6:10 24.13 24.18 24.07 24.04 23.81 24.29
6/23/2022 06:00 to 5:10 24.06 24.06 24.26 24.29 24.17 24.28
6/23/2022 05:00 to 4:10 24.19 24.14 24.02 24.09 24.01 23.88
6/23/2022 04:00 to 3:10 24.05 24.11 24.43 24.46 24.47 24.81
6/23/2022 03:00 to 2:10 24.95 25.02 25.39 25.32 25.63 26.06
6/23/2022 02:00 to 1:10 26.34 26.23 26.09 26.05 26.26 26.00
6/23/2022 01:00 to 0:10 26.26 26.06 26.13 26.24 26.12 26.23
6/23/2022 00:00 to 23:10 25.91 25.68 26.05 26.08 25.94 25.96
6/22/2022 23:00 to 22:10 25.90 26.13 26.15 25.99 26.00 25.93
6/22/2022 22:00 to 21:10 26.10 25.99 25.96 26.01 26.05 25.99
6/22/2022 21:00 to 20:10 26.18 26.01 26.03 26.20 26.10 25.94
6/22/2022 20:00 to 19:10 26.04 26.20 26.04 26.06 25.94 26.19
6/22/2022 19:00 to 18:10 26.02 26.10 25.95 26.02 26.01 25.92
6/22/2022 18:00 to 17:10 25.68 25.92 26.01 26.14 26.24 26.12
6/22/2022 17:00 to 16:10 26.11 26.21 25.82 26.01 25.99 25.91
6/22/2022 16:00 to 15:10 26.08 26.13 26.05 25.95 25.98 25.88
6/22/2022 15:00 to 14:10 25.79 25.62 25.61 25.54 25.41 25.68
6/22/2022 14:00 to 13:10 25.42 25.71 25.55 25.50 25.48 25.42
6/22/2022 13:00 to 12:10 25.40 25.47 25.29 25.23 25.38 25.48
6/22/2022 12:00 to 11:10 25.65 25.64 25.62 25.78 25.90 25.90
6/22/2022 11:00 to 10:10 25.97 25.94 25.92 25.99 25.96 26.01
6/22/2022 10:00 to 9:10 26.13 26.00 26.08 25.85 25.95 25.89
6/22/2022 09:00 to 8:10 25.86 25.68 25.93 25.85 25.85 25.95
6/22/2022 08:00 to 7:10 25.93 26.06 26.19 26.27 26.07 25.94
6/22/2022 07:00 to 6:10 26.03 26.09 25.99 26.28 26.09 26.20
6/22/2022 06:00 to 5:10 26.16 26.29 26.33 25.99 26.14 26.11
6/22/2022 05:00 to 4:10 26.32 26.03 26.19 25.97 25.96 25.99
6/22/2022 04:00 to 3:10 25.94 25.98 26.00 26.10 25.98 25.94
6/22/2022 03:00 to 2:10 25.98 26.30 26.06 26.01 25.95 25.95
6/22/2022 02:00 to 1:10 25.87 25.85 25.89 26.14 26.09 25.93
6/22/2022 01:00 to 0:10 25.99 25.75 25.30 25.49 25.28 25.22